Atlanta, MI

3:34 AM EST on February 07, 2016 (GMT -0500)
Moon Lk | | Change Station
CLOSE
Current Station
Personal Weather Station
Location: Lewiston, MI
Elevation: 1240 ft
Nearby Weather Stations

Elev 1240 ft 44.84 °N, 84.26 °W | Updated 2 seconds ago

Overcast
Overcast
28.6 °F
Feels Like 29 °F
N
0.2
Wind Variable Wind from SSE
Gusts 1.1 mph

Today
High -- | Low -- °F
--% Chance of Precip.
Yesterday
High -- | Low -- °F
Precip. -- in
Pressure 29.97 in
Visibility 7.0 miles
Clouds Overcast 10000 ft
Windchill 29 °F
Dew Point 26 °F
Humidity 88%
Rainfall 0.00 in
Snow Depth Not available.
7:49 AM 5:52 PM
Waning Crescent, 2% visible
METAR KGLR 070753Z AUTO 20008KT 7SM OVC100 M02/M04 A2991 RMK AO2 SLP148 T10171039
Pressure 29.97 in
Visibility 7.0 miles
Clouds Overcast 10000 ft
Windchill 29 °F
Dew Point 26 °F
Humidity 88%
Rainfall 0.00 in
Snow Depth Not available.
7:49 AM 5:52 PM
Waning Crescent, 2% visible
METAR KGLR 070753Z AUTO 20008KT 7SM OVC100 M02/M04 A2991 RMK AO2 SLP148 T10171039

10-Day Weather Forecast

Almanac

Astronomy

Feb. 07, 2016 Rise Set
Actual Time
Civil Twilight
Nautical Twilight
Astronomical Twilight
Moon
Length of Visible Light
Length of Day
Tomorrow will be .
, % of the Moon is Illuminated

Today's Extremes

State Highs State Lows

Community

WunderPhotos

Upload Photos

1,891,171 photos uploaded!

WunderBlog® & News

Nearby

Air Quality

  Air Quality AQ Index Pollutant
Not available.

Snow Depth

Station Depth Elevation

Earthquake Activity

City Distance Mag. Time & Date
Minimum magnitude displayed is 2.5.

Coastal Water Temperatures

Place Temperature

Stations

Nearby Weather Stations

Station Location Temp. Windchill Dew Point Humidity Wind Precip. Elev Updated Type
                   

Watches & Warnings

There are currently no watches in effect.